Time,TemperatureF,DewpointF,PressureIn,WindDirection,WindDirectionDegrees,WindSpeedMPH,WindSpeedGustMPH,Humidity,HourlyPrecipIn,Conditions,Clouds,dailyrainin,SolarRadiationWatts/m^2,SoftwareType,DateUTC
2013-01-05 00:00:00,42.0,40.1,30.09,South,171,1.0,5.0,93,0.00,00:00,,0.00,0.0,WeatherDisplay:WD co,2013-01-05 08:00:00,
2013-01-05 00:50:00,42.2,40.3,30.08,SSE,158,1.0,5.0,93,0.00,00:50,,0.00,0.0,WeatherDisplay:WD co,2013-01-05 08:50:00,
2013-01-05 02:00:00,42.7,40.3,30.08,SSE,157,2.0,5.0,91,0.00,02:00,,0.00,0.0,WeatherDisplay:WD co,2013-01-05 10:00:00,
2013-01-05 03:35:00,42.4,39.4,30.08,SSE,162,1.0,5.0,89,0.00,RA,,0.02,0.0,WeatherDisplay:WD co,2013-01-05 11:35:00,
2013-01-05 04:10:00,42.2,39.2,30.08,SSE,157,2.0,6.0,89,0.00,04:10,,0.02,0.0,WeatherDisplay:WD co,2013-01-05 12:10:00,
2013-01-05 05:00:00,42.0,39.3,30.07,South,173,0.0,3.0,90,0.00,05:00,,0.02,0.0,WeatherDisplay:WD co,2013-01-05 13:00:00,
2013-01-05 05:10:00,42.0,39.3,30.07,ESE,121,0.0,1.0,90,0.00,05:10,,0.02,0.0,WeatherDisplay:WD co,2013-01-05 13:10:00,
2013-01-05 05:50:00,41.7,39.3,30.06,SE,140,1.0,3.0,91,0.00,RA,,0.02,0.0,WeatherDisplay:WD co,2013-01-05 13:50:00,
2013-01-05 06:50:00,41.6,39.2,30.05,South,187,0.0,3.0,91,0.00,RA,,0.03,0.0,WeatherDisplay:WD co,2013-01-05 14:50:00,
2013-01-05 08:10:00,41.4,39.0,30.06,SSE,167,2.0,5.0,91,0.00,08:10,,0.03,0.0,WeatherDisplay:WD co,2013-01-05 16:10:00,
2013-01-05 08:15:00,41.4,39.0,30.05,SSE,165,0.0,4.0,91,0.00,08:15,,0.03,0.0,WeatherDisplay:WD co,2013-01-05 16:15:00,
2013-01-05 08:55:00,41.9,39.7,30.05,SSE,147,1.0,4.0,92,0.00,08:55,,0.03,0.0,WeatherDisplay:WD co,2013-01-05 16:55:00,
2013-01-05 09:15:00,41.9,39.7,30.05,South,175,1.0,4.0,92,0.00,09:15,,0.03,0.0,WeatherDisplay:WD co,2013-01-05 17:15:00,
2013-01-05 09:35:00,42.0,39.8,30.06,SSE,164,1.0,7.0,92,0.00,09:35,,0.03,0.0,WeatherDisplay:WD co,2013-01-05 17:35:00,
2013-01-05 09:50:00,42.0,39.8,30.07,South,176,0.0,6.0,92,0.00,09:50,,0.03,0.0,WeatherDisplay:WD co,2013-01-05 17:50:00,
2013-01-05 10:00:00,42.0,39.8,30.07,SSE,147,1.0,9.0,92,0.00,10:00,,0.03,0.0,WeatherDisplay:WD co,2013-01-05 18:00:00,
2013-01-05 10:30:00,42.3,40.1,30.08,SSE,151,1.0,3.0,92,0.00,10:30,,0.03,0.0,WeatherDisplay:WD co,2013-01-05 18:30:00,
2013-01-05 11:10:00,42.4,40.0,30.06,SSE,153,1.0,6.0,91,0.00,11:10,,0.03,0.0,WeatherDisplay:WD co,2013-01-05 19:10:00,
2013-01-05 12:55:00,42.9,39.9,30.02,SE,146,1.0,6.0,89,0.00,12:55,,0.03,0.0,WeatherDisplay:WD co,2013-01-05 20:55:00,
2013-01-05 13:00:00,42.9,39.9,30.02,SE,137,3.0,10.0,89,0.00,13:00,,0.03,0.0,WeatherDisplay:WD co,2013-01-05 21:00:00,
2013-01-05 13:35:00,43.0,39.7,30.01,SE,142,0.0,3.0,88,0.00,13:35,,0.03,0.0,WeatherDisplay:WD co,2013-01-05 21:35:00,
2013-01-05 17:20:00,43.2,39.6,29.97,SSE,151,0.0,3.0,87,0.00,17:20,,0.03,0.0,WeatherDisplay:WD co,2013-01-06 01:20:00,
2013-01-05 17:55:00,42.9,39.6,29.97,SSE,147,0.0,7.0,88,0.00,17:55,,0.03,0.0,WeatherDisplay:WD co,2013-01-06 01:55:00,
2013-01-05 18:55:00,42.7,39.7,29.97,SSE,152,0.0,4.0,89,0.00,18:55,,0.03,0.0,WeatherDisplay:WD co,2013-01-06 02:55:00,
2013-01-05 19:10:00,42.6,39.6,29.97,South,172,0.0,3.0,89,0.00,19:10,,0.03,0.0,WeatherDisplay:WD co,2013-01-06 03:10:00,
2013-01-05 19:50:00,42.2,38.9,29.97,SSE,151,0.0,4.0,88,0.00,19:50,,0.03,0.0,WeatherDisplay:WD co,2013-01-06 03:50:00,
2013-01-05 20:20:00,42.0,38.4,29.97,SSE,166,0.0,2.0,87,0.00,20:20,,0.03,0.0,WeatherDisplay:WD co,2013-01-06 04:20:00,
2013-01-05 20:35:00,41.6,38.1,29.96,South,172,0.0,1.0,87,0.00,20:35,,0.03,0.0,WeatherDisplay:WD co,2013-01-06 04:35:00,
2013-01-05 22:40:00,38.9,35.4,29.97,SW,220,0.0,1.0,87,0.00,RA,,0.04,0.0,WeatherDisplay:WD co,2013-01-06 06:40:00,
2013-01-05 23:10:00,39.3,34.9,29.97,South,169,0.0,1.0,84,0.00,23:10,,0.04,0.0,WeatherDisplay:WD co,2013-01-06 07:10:00,
2013-01-05 23:35:00,40.9,34.3,29.97,SSE,157,0.0,1.0,77,0.00,23:35,,0.04,0.0,WeatherDisplay:WD co,2013-01-06 07:35:00,